Time;durP1;ratioP1;P1;durP2;ratioP2;P2;SDS_P1;SDS_P2;PMS_P1;PMS_P2;Temp;Humidity;BMP_temperature;BMP_pressure;BME280_temperature;BME280_humidity;BME280_pressure;Samples;Min_cycle;Max_cycle;Signal;HPM_P1;HPM_P2
2022/02/15 00:00:31;;;;;;;0.40;0.40;;;8.50;99.90;;;;;;5094422;28;20171;-73
2022/02/15 00:02:57;;;;;;;0.40;0.40;;;8.50;99.90;;;;;;5093430;28;20757;-72
2022/02/15 00:05:23;;;;;;;0.83;0.77;;;8.50;99.90;;;;;;5093771;28;20211;-71
2022/02/15 00:07:49;;;;;;;0.50;0.50;;;8.50;99.90;;;;;;5093931;28;20195;-71
2022/02/15 00:10:15;;;;;;;0.87;0.60;;;8.50;99.90;;;;;;5093958;28;20172;-71
2022/02/15 00:12:41;;;;;;;0.40;0.40;;;8.50;99.90;;;;;;5093587;28;20160;-71
2022/02/15 00:15:08;;;;;;;0.50;0.50;;;8.40;99.90;;;;;;5093648;28;20418;-71
2022/02/15 00:17:36;;;;;;;0.60;0.60;;;8.40;99.90;;;;;;5093819;28;20903;-71
2022/02/15 00:20:02;;;;;;;0.63;0.60;;;8.40;99.90;;;;;;5093707;28;20568;-71
2022/02/15 00:22:28;;;;;;;0.50;0.50;;;8.40;99.90;;;;;;5093739;28;20164;-72
2022/02/15 00:24:53;;;;;;;0.87;0.87;;;8.40;99.90;;;;;;5093316;28;20191;-70
2022/02/15 00:27:19;;;;;;;0.50;0.50;;;8.40;99.90;;;;;;5093667;28;20199;-71
2022/02/15 00:29:45;;;;;;;0.60;0.60;;;8.40;99.90;;;;;;5093592;28;20164;-71
2022/02/15 00:32:10;;;;;;;0.50;0.50;;;8.30;99.90;;;;;;5093866;28;20160;-72
2022/02/15 00:34:36;;;;;;;0.57;0.57;;;8.30;99.90;;;;;;5093077;28;20196;-73
2022/02/15 00:37:02;;;;;;;1.07;0.70;;;8.30;99.90;;;;;;5093651;28;20172;-71
2022/02/15 00:39:28;;;;;;;1.25;0.75;;;8.30;99.90;;;;;;5093590;28;20203;-73
2022/02/15 00:41:53;;;;;;;0.70;0.60;;;8.20;99.90;;;;;;5093488;28;20568;-70
2022/02/15 00:44:19;;;;;;;1.00;0.90;;;8.20;99.90;;;;;;5092985;28;20199;-72
2022/02/15 00:46:45;;;;;;;0.70;0.50;;;8.20;99.90;;;;;;5096133;28;20263;-72
2022/02/15 00:49:11;;;;;;;0.50;0.50;;;8.20;99.90;;;;;;5097701;28;20560;-73
2022/02/15 00:51:37;;;;;;;1.00;0.90;;;8.20;99.90;;;;;;5097807;28;20167;-70
2022/02/15 00:54:03;;;;;;;0.60;0.60;;;8.20;99.90;;;;;;5097086;28;20187;-72
2022/02/15 00:56:28;;;;;;;0.70;0.70;;;8.20;99.90;;;;;;5097599;28;20171;-73
2022/02/15 00:58:54;;;;;;;0.87;0.60;;;8.10;99.90;;;;;;5097384;28;20182;-73
2022/02/15 01:01:19;;;;;;;0.47;0.47;;;8.10;99.90;;;;;;5096265;28;20211;-73
2022/02/15 01:03:45;;;;;;;1.47;1.10;;;8.10;99.90;;;;;;5096925;28;20299;-71
2022/02/15 01:06:11;;;;;;;1.07;1.07;;;8.10;99.90;;;;;;5096237;28;20278;-72
2022/02/15 01:08:36;;;;;;;0.80;0.80;;;8.10;99.90;;;;;;5097007;28;20179;-73
2022/02/15 01:11:02;;;;;;;1.33;1.23;;;8.10;99.90;;;;;;5096954;28;20164;-71
2022/02/15 01:13:28;;;;;;;1.10;1.00;;;8.10;99.90;;;;;;5095211;28;20694;-73
2022/02/15 01:15:54;;;;;;;1.00;1.00;;;8.10;99.90;;;;;;5096937;28;20188;-72
2022/02/15 01:18:20;;;;;;;1.07;0.97;;;8.00;99.90;;;;;;5097182;28;20175;-72
2022/02/15 01:20:46;;;;;;;1.33;1.00;;;8.00;99.90;;;;;;5097265;28;20207;-72
2022/02/15 01:23:13;;;;;;;0.82;0.80;;;7.90;99.90;;;;;;5096761;28;20217;-71
2022/02/15 01:25:38;;;;;;;1.00;1.00;;;7.90;99.90;;;;;;5097667;28;20222;-73
2022/02/15 01:28:04;;;;;;;1.60;1.20;;;7.90;99.90;;;;;;5096982;28;20199;-71
2022/02/15 01:30:30;;;;;;;0.83;0.73;;;7.90;99.90;;;;;;5096778;28;20537;-72
2022/02/15 01:32:56;;;;;;;1.13;0.70;;;7.80;99.90;;;;;;5096152;28;20423;-73
2022/02/15 01:35:21;;;;;;;1.13;1.13;;;7.80;99.90;;;;;;5096872;28;20199;-73
2022/02/15 01:37:47;;;;;;;2.27;1.57;;;7.70;99.90;;;;;;5096816;28;20179;-74
2022/02/15 01:40:13;;;;;;;1.30;1.20;;;7.70;99.90;;;;;;5096830;28;20179;-70
2022/02/15 01:42:39;;;;;;;6.85;1.05;;;7.70;99.90;;;;;;5096527;28;20181;-73
2022/02/15 01:45:09;;;;;;;0.70;0.70;;;7.60;99.90;;;;;;5096014;28;20203;-71
2022/02/15 01:47:34;;;;;;;1.10;1.10;;;7.60;99.90;;;;;;5095068;28;20966;-71
2022/02/15 01:50:00;;;;;;;0.80;0.80;;;7.60;99.90;;;;;;5096592;28;20178;-73
2022/02/15 01:52:26;;;;;;;1.63;1.13;;;7.60;99.90;;;;;;5096828;28;20190;-73
2022/02/15 01:54:54;;;;;;;1.30;1.30;;;7.50;99.90;;;;;;5095981;28;20428;-73
2022/02/15 01:57:21;;;;;;;1.50;1.40;;;7.40;99.90;;;;;;5096318;28;20168;-74
2022/02/15 01:59:47;;;;;;;1.20;1.20;;;7.40;99.90;;;;;;5096140;28;20226;-72
2022/02/15 02:02:16;;;;;;;1.33;1.03;;;7.40;99.90;;;;;;5096186;28;20618;-74
2022/02/15 02:07:29;;;;;;;1.17;1.08;;;7.20;99.90;;;;;;5096161;28;20206;-74
2022/02/15 02:09:55;;;;;;;2.20;1.45;;;7.20;99.90;;;;;;5096098;28;20171;-73
2022/02/15 02:12:22;;;;;;;2.37;1.07;;;7.20;99.90;;;;;;5095976;28;20161;-72
2022/02/15 02:15:02;;;;;;;1.33;1.33;;;7.20;99.90;;;;;;5095421;28;20448;-72
2022/02/15 02:17:28;;;;;;;1.10;1.10;;;7.20;99.90;;;;;;5094591;28;20645;-73
2022/02/15 02:19:55;;;;;;;0.80;0.80;;;7.20;99.90;;;;;;5096720;28;20183;-73
2022/02/15 02:22:25;;;;;;;0.60;0.60;;;7.20;99.90;;;;;;5095859;28;20263;-74
2022/02/15 02:24:55;;;;;;;1.08;1.02;;;7.20;99.90;;;;;;5095394;28;20194;-73
2022/02/15 02:27:24;;;;;;;1.05;0.80;;;7.10;99.90;;;;;;5095844;28;20688;-73
2022/02/15 02:29:51;;;;;;;1.00;0.90;;;7.10;99.90;;;;;;5095096;28;20223;-71
2022/02/15 02:32:18;;;;;;;0.90;0.90;;;7.10;99.90;;;;;;5095727;28;20164;-72
2022/02/15 02:34:44;;;;;;;1.10;1.10;;;7.10;99.90;;;;;;5095236;28;20278;-71
2022/02/15 02:37:13;;;;;;;0.70;0.70;;;7.10;99.90;;;;;;5095676;28;20174;-73
2022/02/15 02:39:46;;;;;;;0.90;0.90;;;7.10;99.90;;;;;;5095788;28;20547;-72
2022/02/15 02:42:13;;;;;;;1.33;1.00;;;7.00;99.90;;;;;;5095522;28;20270;-72
2022/02/15 02:44:40;;;;;;;2.63;1.25;;;7.10;99.90;;;;;;5094940;28;20209;-73
2022/02/15 02:47:07;;;;;;;0.90;0.90;;;7.10;99.90;;;;;;5095252;28;20202;-73
2022/02/15 02:49:34;;;;;;;1.60;1.40;;;7.10;99.90;;;;;;5095397;28;20631;-71
2022/02/15 02:52:00;;;;;;;1.17;1.17;;;7.10;99.90;;;;;;5095622;28;20573;-71
2022/02/15 02:54:26;;;;;;;0.90;0.90;;;7.20;99.90;;;;;;5094801;28;20233;-73
2022/02/15 02:56:53;;;;;;;1.95;1.20;;;7.20;99.90;;;;;;5095282;28;20556;-72
2022/02/15 02:59:19;;;;;;;0.60;0.60;;;7.10;99.90;;;;;;5094892;28;20267;-74
2022/02/15 03:01:45;;;;;;;0.93;0.90;;;7.20;99.90;;;;;;5094833;28;20174;-73
2022/02/15 03:04:11;;;;;;;1.20;1.10;;;7.10;99.90;;;;;;5094640;28;20679;-72
2022/02/15 03:06:36;;;;;;;3.03;0.90;;;7.10;99.90;;;;;;5094538;28;20487;-71
2022/02/15 03:09:03;;;;;;;0.80;0.80;;;7.10;99.90;;;;;;5094744;28;20322;-73
2022/02/15 03:11:29;;;;;;;2.53;1.55;;;7.10;99.90;;;;;;5093806;28;20175;-71
2022/02/15 03:13:55;;;;;;;1.50;1.43;;;7.10;99.90;;;;;;5094094;28;20228;-74
2022/02/15 03:16:23;;;;;;;1.83;0.90;;;7.20;99.90;;;;;;5095043;28;20410;-71
2022/02/15 03:18:49;;;;;;;0.82;0.80;;;7.20;99.90;;;;;;5094778;28;20171;-73
2022/02/15 03:21:15;;;;;;;1.13;1.08;;;7.30;99.90;;;;;;5094848;28;20238;-72
2022/02/15 03:23:41;;;;;;;0.60;0.60;;;7.30;99.90;;;;;;5094267;28;20208;-71
2022/02/15 03:26:06;;;;;;;2.05;0.90;;;7.30;99.90;;;;;;5094455;28;20450;-73
2022/02/15 03:28:32;;;;;;;1.30;1.27;;;7.40;99.90;;;;;;5094357;28;20174;-72
2022/02/15 03:30:58;;;;;;;0.67;0.67;;;7.40;99.90;;;;;;5094461;28;20179;-72
2022/02/15 03:33:24;;;;;;;3.00;0.93;;;7.40;99.90;;;;;;5094973;28;20764;-73
2022/02/15 03:35:50;;;;;;;1.20;1.10;;;7.40;99.90;;;;;;5094413;28;20233;-72
2022/02/15 03:38:15;;;;;;;2.60;0.97;;;7.40;99.90;;;;;;5094522;28;20435;-72
2022/02/15 03:43:25;;;;;;;0.63;0.63;;;7.40;99.90;;;;;;5093771;28;20755;-71
2022/02/15 03:45:51;;;;;;;3.63;0.77;;;7.40;99.90;;;;;;5094114;28;20278;-72
2022/02/15 03:48:17;;;;;;;1.30;1.20;;;7.40;99.90;;;;;;5092920;28;20175;-72
2022/02/15 03:50:42;;;;;;;0.77;0.77;;;7.40;99.90;;;;;;5094225;28;20184;-74
2022/02/15 03:53:08;;;;;;;3.40;1.03;;;7.40;99.90;;;;;;5093759;28;20177;-71
2022/02/15 03:55:34;;;;;;;1.90;1.27;;;7.50;99.90;;;;;;5092704;28;20192;-73
2022/02/15 03:58:00;;;;;;;0.70;0.70;;;7.50;99.90;;;;;;5093971;28;20188;-72
2022/02/15 04:00:26;;;;;;;0.97;0.97;;;7.50;99.90;;;;;;5094196;28;20183;-71
2022/02/15 04:02:52;;;;;;;0.97;0.87;;;7.60;99.90;;;;;;5093585;28;20404;-72
2022/02/15 04:05:17;;;;;;;1.03;1.03;;;7.50;99.90;;;;;;5094117;28;20251;-72
2022/02/15 04:07:43;;;;;;;0.90;0.90;;;7.60;99.90;;;;;;5093792;28;20199;-72
2022/02/15 04:10:09;;;;;;;0.73;0.73;;;7.60;99.90;;;;;;5093857;28;20168;-71
2022/02/15 04:12:34;;;;;;;1.23;1.13;;;7.60;99.90;;;;;;5093438;28;20168;-72
2022/02/15 04:15:00;;;;;;;4.27;0.90;;;7.60;99.90;;;;;;5092050;28;20401;-71
2022/02/15 04:17:26;;;;;;;1.70;1.60;;;7.60;99.90;;;;;;5094011;28;20209;-73
2022/02/15 04:19:51;;;;;;;2.40;1.20;;;7.60;99.90;;;;;;5093350;28;20175;-72
2022/02/15 04:22:17;;;;;;;0.87;0.87;;;7.60;99.90;;;;;;5093665;28;20170;-72
2022/02/15 04:24:42;;;;;;;1.17;1.10;;;7.60;99.90;;;;;;5092047;28;20202;-71
2022/02/15 04:27:08;;;;;;;0.83;0.83;;;7.60;99.90;;;;;;5093544;28;20202;-71
2022/02/15 04:29:34;;;;;;;1.30;1.00;;;7.60;99.90;;;;;;5093107;28;20224;-72
2022/02/15 04:31:59;;;;;;;0.80;0.80;;;7.60;99.90;;;;;;5092321;28;20251;-72
2022/02/15 04:34:25;;;;;;;1.07;0.97;;;7.60;99.90;;;;;;5092982;28;20422;-71
2022/02/15 04:36:51;;;;;;;1.10;1.10;;;7.70;99.90;;;;;;5093645;28;20634;-71
2022/02/15 04:39:16;;;;;;;0.60;0.60;;;7.60;99.90;;;;;;5093902;28;20623;-72
2022/02/15 04:41:42;;;;;;;1.00;1.00;;;7.60;99.90;;;;;;5093389;28;20172;-71
2022/02/15 04:44:08;;;;;;;1.00;1.00;;;7.60;99.90;;;;;;5092719;28;20196;-71
2022/02/15 04:46:33;;;;;;;1.50;0.87;;;7.70;99.90;;;;;;5093383;28;20237;-71
2022/02/15 04:49:00;;;;;;;0.83;0.83;;;7.70;99.90;;;;;;5093539;28;20163;-72
2022/02/15 04:51:26;;;;;;;0.90;0.90;;;7.70;99.90;;;;;;5093435;28;20175;-71
2022/02/15 04:53:52;;;;;;;0.65;0.65;;;7.70;99.90;;;;;;5091539;28;20196;-71
2022/02/15 04:56:18;;;;;;;1.20;1.08;;;7.70;99.90;;;;;;5092976;28;20537;-71
2022/02/15 04:58:44;;;;;;;0.97;0.93;;;7.70;99.90;;;;;;5093393;28;20168;-71
2022/02/15 05:01:14;;;;;;;0.82;0.82;;;7.70;99.90;;;;;;5093452;28;20885;-72
2022/02/15 05:03:40;;;;;;;1.80;1.70;;;7.70;99.90;;;;;;5092681;28;20518;-72
2022/02/15 05:06:06;;;;;;;1.23;1.17;;;7.60;99.90;;;;;;5093027;28;20554;-72
2022/02/15 05:08:32;;;;;;;1.40;1.30;;;7.60;99.90;;;;;;5093394;28;20171;-71
2022/02/15 05:10:57;;;;;;;1.33;1.13;;;7.60;99.90;;;;;;5091670;28;20171;-72
2022/02/15 05:13:23;;;;;;;1.30;1.17;;;7.60;99.90;;;;;;5092839;28;20677;-73
2022/02/15 05:15:49;;;;;;;1.00;1.00;;;7.60;99.90;;;;;;5091623;28;20202;-72
2022/02/15 05:18:15;;;;;;;1.07;1.07;;;7.70;99.90;;;;;;5091974;28;20402;-71
2022/02/15 05:20:41;;;;;;;0.80;0.70;;;7.60;99.90;;;;;;5093210;28;20954;-72
2022/02/15 05:23:07;;;;;;;1.40;1.30;;;7.60;99.90;;;;;;5092621;28;20180;-72
2022/02/15 05:25:33;;;;;;;0.95;0.80;;;7.50;99.90;;;;;;5093176;28;20210;-71
2022/02/15 05:27:59;;;;;;;1.70;1.33;;;7.50;99.90;;;;;;5092769;28;20207;-71
2022/02/15 05:30:27;;;;;;;0.80;0.80;;;7.50;99.90;;;;;;5092902;28;20402;-73
2022/02/15 05:32:53;;;;;;;1.48;1.05;;;7.50;99.90;;;;;;5095608;28;20178;-73
2022/02/15 05:35:19;;;;;;;1.02;1.02;;;7.50;99.90;;;;;;5096257;28;20194;-71
2022/02/15 05:37:45;;;;;;;1.00;0.90;;;7.50;99.90;;;;;;5096744;28;20660;-71
2022/02/15 05:40:11;;;;;;;1.45;1.35;;;7.50;99.90;;;;;;5097787;28;20181;-71
2022/02/15 05:42:37;;;;;;;1.20;0.82;;;7.50;99.90;;;;;;5096745;28;20171;-73
2022/02/15 05:45:03;;;;;;;0.80;0.80;;;7.50;99.90;;;;;;5096128;28;20248;-71
2022/02/15 05:47:29;;;;;;;1.27;0.93;;;7.50;99.90;;;;;;5096339;28;20491;-73
2022/02/15 05:52:39;;;;;;;1.55;1.17;;;7.60;99.90;;;;;;5096185;28;20206;-71
2022/02/15 05:55:06;;;;;;;1.17;1.08;;;7.50;99.90;;;;;;5094511;28;20248;-71
2022/02/15 05:57:31;;;;;;;1.08;1.02;;;7.40;99.90;;;;;;5094960;28;20190;-71
2022/02/15 05:59:57;;;;;;;2.20;1.10;;;7.50;99.90;;;;;;5096157;28;20171;-72
2022/02/15 06:02:23;;;;;;;1.13;0.90;;;7.50;99.90;;;;;;5094769;28;20274;-72
2022/02/15 06:04:48;;;;;;;1.87;1.30;;;7.50;99.90;;;;;;5095129;28;20702;-70
2022/02/15 06:07:14;;;;;;;2.07;1.93;;;7.50;99.90;;;;;;5094687;28;20206;-72
2022/02/15 06:09:40;;;;;;;1.30;1.10;;;7.50;99.90;;;;;;5096115;28;20630;-71
2022/02/15 06:12:06;;;;;;;4.33;1.30;;;7.50;99.90;;;;;;5096096;28;20201;-71
2022/02/15 06:14:32;;;;;;;1.20;1.10;;;7.60;99.90;;;;;;5095239;28;20433;-71
2022/02/15 06:16:58;;;;;;;1.20;1.10;;;7.60;99.90;;;;;;5095583;28;20180;-72
2022/02/15 06:19:23;;;;;;;1.40;1.30;;;7.60;99.90;;;;;;5095552;28;20258;-70
2022/02/15 06:21:49;;;;;;;1.40;1.30;;;7.60;99.90;;;;;;5095469;28;20174;-71
2022/02/15 06:24:17;;;;;;;1.65;1.40;;;7.60;99.90;;;;;;5095430;28;20186;-70
2022/02/15 06:26:43;;;;;;;1.00;0.93;;;7.70;99.90;;;;;;5095822;28;20187;-70
2022/02/15 06:29:09;;;;;;;7.35;1.13;;;7.70;99.90;;;;;;5095453;28;20204;-72
2022/02/15 06:31:37;;;;;;;1.00;1.00;;;7.70;99.90;;;;;;5095492;28;20273;-72
2022/02/15 06:34:05;;;;;;;1.02;0.80;;;7.70;99.90;;;;;;5093976;28;20474;-74
2022/02/15 06:36:31;;;;;;;1.17;1.10;;;7.70;99.90;;;;;;5094514;28;20240;-73
2022/02/15 06:38:57;;;;;;;1.65;1.55;;;7.70;99.90;;;;;;5095424;28;20711;-73
2022/02/15 06:41:23;;;;;;;3.33;1.80;;;7.80;99.90;;;;;;5095052;28;20184;-71
2022/02/15 06:43:50;;;;;;;1.37;1.27;;;7.70;99.90;;;;;;5094035;28;20172;-72
2022/02/15 06:46:16;;;;;;;0.85;0.85;;;7.80;99.90;;;;;;5093768;28;20213;-71
2022/02/15 06:48:41;;;;;;;0.70;0.70;;;7.70;99.90;;;;;;5094633;28;20176;-71
2022/02/15 06:51:07;;;;;;;1.03;1.03;;;7.70;99.90;;;;;;5095193;28;20296;-72
2022/02/15 06:53:33;;;;;;;1.50;1.40;;;7.80;99.90;;;;;;5094840;28;20175;-72
2022/02/15 06:56:00;;;;;;;2.20;1.30;;;7.80;99.90;;;;;;5094675;28;20195;-71
2022/02/15 06:58:26;;;;;;;0.90;0.90;;;7.80;99.90;;;;;;5093647;28;20422;-71
2022/02/15 07:00:51;;;;;;;1.20;1.10;;;7.80;99.90;;;;;;5091671;28;20593;-70
2022/02/15 07:03:17;;;;;;;1.73;1.60;;;7.90;99.90;;;;;;5092375;28;20255;-72
2022/02/15 07:05:43;;;;;;;3.60;2.17;;;7.80;99.90;;;;;;5092769;28;20653;-72
2022/02/15 07:08:08;;;;;;;2.13;1.30;;;7.80;99.90;;;;;;5092819;28;20164;-71
2022/02/15 07:10:36;;;;;;;0.97;0.97;;;7.80;99.90;;;;;;5092764;28;20168;-75
2022/02/15 07:13:02;;;;;;;1.65;1.55;;;7.80;99.90;;;;;;5092065;28;20259;-71
2022/02/15 07:15:28;;;;;;;1.50;1.40;;;7.80;99.90;;;;;;5093310;28;20203;-71
2022/02/15 07:17:56;;;;;;;1.80;1.27;;;7.80;99.90;;;;;;5095095;28;20178;-72
2022/02/15 07:20:21;;;;;;;1.58;1.48;;;7.80;99.90;;;;;;5092894;28;20672;-72
2022/02/15 07:22:47;;;;;;;1.47;0.87;;;7.80;99.90;;;;;;5094332;28;20202;-73
2022/02/15 07:25:14;;;;;;;1.97;1.33;;;7.80;99.90;;;;;;5093153;28;20202;-72
2022/02/15 07:27:39;;;;;;;1.30;1.30;;;7.80;99.90;;;;;;5094535;28;20279;-72
2022/02/15 07:30:06;;;;;;;0.87;0.77;;;7.80;99.90;;;;;;5094940;28;20252;-71
2022/02/15 07:32:32;;;;;;;1.02;0.88;;;7.80;99.90;;;;;;5095111;28;20196;-72
2022/02/15 07:34:58;;;;;;;0.70;0.70;;;7.90;99.90;;;;;;5094022;28;20621;-71
2022/02/15 07:37:25;;;;;;;0.60;0.60;;;8.00;99.90;;;;;;5093704;28;20197;-71
2022/02/15 07:39:52;;;;;;;0.70;0.70;;;8.00;99.90;;;;;;5095083;28;20198;-72
2022/02/15 07:42:17;;;;;;;0.52;0.52;;;8.00;99.90;;;;;;5095376;28;20171;-72
2022/02/15 07:44:43;;;;;;;2.50;1.80;;;8.00;99.90;;;;;;5094468;28;20202;-71
2022/02/15 07:47:09;;;;;;;0.60;0.60;;;8.10;99.90;;;;;;5098905;28;20196;-72
2022/02/15 07:49:34;;;;;;;7.03;0.70;;;8.10;99.90;;;;;;5098256;28;20192;-72
2022/02/15 07:52:01;;;;;;;0.50;0.40;;;8.10;99.90;;;;;;5099113;28;20168;-72
2022/02/15 07:54:26;;;;;;;0.73;0.73;;;8.20;99.90;;;;;;5099517;28;20188;-71
2022/02/15 07:56:52;;;;;;;1.13;1.03;;;8.20;99.90;;;;;;5099505;28;20630;-72
2022/02/15 07:59:18;;;;;;;0.60;0.60;;;8.20;99.90;;;;;;5099997;28;20398;-73
2022/02/15 08:01:44;;;;;;;0.80;0.80;;;8.20;99.90;;;;;;5101051;28;20174;-72
2022/02/15 08:04:13;;;;;;;3.37;1.30;;;8.20;99.90;;;;;;5092704;28;20286;-71
2022/02/15 08:06:40;;;;;;;1.17;1.08;;;8.30;99.90;;;;;;5093633;28;20198;-71
2022/02/15 08:09:05;;;;;;;1.35;0.90;;;8.20;99.90;;;;;;5094054;28;20225;-73
2022/02/15 08:11:39;;;;;;;4.53;0.77;;;8.30;99.90;;;;;;5093852;28;20194;-70
2022/02/15 08:14:04;;;;;;;0.88;0.88;;;8.30;99.90;;;;;;5093379;28;20191;-72
2022/02/15 08:16:30;;;;;;;1.03;0.90;;;8.30;99.90;;;;;;5094016;28;20164;-72
2022/02/15 08:18:56;;;;;;;0.70;0.70;;;8.20;99.90;;;;;;5093512;28;20449;-73
2022/02/15 08:21:21;;;;;;;1.03;0.93;;;8.30;99.90;;;;;;5093821;28;20174;-73
2022/02/15 08:23:47;;;;;;;0.50;0.50;;;8.40;99.90;;;;;;5093068;28;20175;-73
2022/02/15 08:26:13;;;;;;;0.93;0.60;;;8.50;99.90;;;;;;5092167;28;20203;-72
2022/02/15 08:28:43;;;;;;;0.70;0.70;;;8.60;99.90;;;;;;5092260;28;20301;-71
2022/02/15 08:31:10;;;;;;;0.80;0.80;;;8.70;99.90;;;;;;5093535;28;20165;-72
2022/02/15 08:33:37;;;;;;;0.50;0.50;;;8.80;99.90;;;;;;5092823;28;20166;-71
2022/02/15 08:36:04;;;;;;;2.22;0.88;;;8.90;99.90;;;;;;5093580;28;20190;-72
2022/02/15 08:38:33;;;;;;;0.90;0.90;;;9.00;99.90;;;;;;5093600;28;20164;-72
2022/02/15 08:41:00;;;;;;;1.27;1.27;;;9.20;99.90;;;;;;5093608;28;20174;-72
2022/02/15 08:43:26;;;;;;;0.70;0.70;;;9.50;99.90;;;;;;5093104;28;20179;-71
2022/02/15 08:45:51;;;;;;;1.60;1.50;;;9.70;99.90;;;;;;5093380;28;20550;-72
2022/02/15 08:48:17;;;;;;;0.77;0.77;;;9.80;99.90;;;;;;5093332;28;20595;-72
2022/02/15 08:50:43;;;;;;;1.20;0.83;;;9.70;99.90;;;;;;5092180;28;20645;-74
2022/02/15 08:53:09;;;;;;;1.57;0.80;;;9.70;99.90;;;;;;5093218;28;20170;-71
2022/02/15 08:55:34;;;;;;;1.00;0.57;;;9.60;99.90;;;;;;5093301;28;20665;-72
2022/02/15 08:58:00;;;;;;;1.47;1.37;;;9.60;99.90;;;;;;5093327;28;20170;-71
2022/02/15 09:00:26;;;;;;;0.87;0.60;;;9.60;99.90;;;;;;5093521;28;20172;-72
2022/02/15 09:02:51;;;;;;;1.83;0.73;;;9.60;99.90;;;;;;5091288;28;20176;-72
2022/02/15 09:05:17;;;;;;;0.97;0.70;;;9.70;99.90;;;;;;5092057;28;20288;-72
2022/02/15 09:07:43;;;;;;;0.80;0.80;;;9.80;99.90;;;;;;5096027;28;20653;-72
2022/02/15 09:10:09;;;;;;;0.53;0.53;;;9.80;99.90;;;;;;5095844;28;20226;-71
2022/02/15 09:12:35;;;;;;;0.80;0.75;;;9.70;99.90;;;;;;5096931;28;20179;-72
2022/02/15 09:15:01;;;;;;;0.68;0.68;;;9.50;99.90;;;;;;5095552;28;20631;-71
2022/02/15 09:17:27;;;;;;;0.90;0.90;;;9.40;99.90;;;;;;5097170;28;20168;-73
2022/02/15 09:19:52;;;;;;;0.70;0.70;;;9.40;99.90;;;;;;5096916;28;20180;-72
2022/02/15 09:22:18;;;;;;;0.70;0.70;;;9.30;99.90;;;;;;5097260;28;20172;-71
2022/02/15 09:24:45;;;;;;;1.10;0.85;;;9.20;99.90;;;;;;5096658;28;20184;-71
2022/02/15 09:27:11;;;;;;;1.30;1.23;;;9.10;99.90;;;;;;5095551;28;20195;-71
2022/02/15 09:29:37;;;;;;;1.03;1.03;;;9.10;99.90;;;;;;5096999;28;20172;-72
2022/02/15 09:32:03;;;;;;;0.90;0.90;;;9.00;99.90;;;;;;5096727;28;20871;-71
2022/02/15 09:34:29;;;;;;;0.88;0.88;;;8.90;99.90;;;;;;5096089;28;20520;-70
2022/02/15 09:36:55;;;;;;;1.30;1.20;;;9.00;99.90;;;;;;5096781;28;20759;-70
2022/02/15 09:39:20;;;;;;;0.93;0.75;;;9.20;99.90;;;;;;5096394;28;20176;-71
2022/02/15 09:41:47;;;;;;;1.63;1.20;;;9.40;99.90;;;;;;5095244;28;20529;-72
2022/02/15 09:44:13;;;;;;;0.57;0.57;;;9.60;99.90;;;;;;5096030;28;20208;-73
2022/02/15 09:46:44;;;;;;;0.90;0.90;;;9.70;99.90;;;;;;5096616;28;20588;-71
2022/02/15 09:49:48;;;;;;;1.30;1.20;;;9.80;99.90;;;;;;5096491;28;20166;-73
2022/02/15 09:51:56;;;;;;;1.02;1.02;;;10.00;99.90;;;;;;5096167;28;20174;-72
2022/02/15 09:54:22;;;;;;;1.60;1.50;;;10.40;99.90;;;;;;5095689;28;20224;-73
2022/02/15 09:56:47;;;;;;;1.37;1.23;;;10.70;99.90;;;;;;5096296;28;20408;-73
2022/02/15 09:59:14;;;;;;;1.40;1.30;;;11.10;99.90;;;;;;5096316;28;20243;-72
2022/02/15 10:01:40;;;;;;;2.87;1.57;;;11.10;99.90;;;;;;5094863;28;20178;-71
2022/02/15 10:04:08;;;;;;;3.10;1.10;;;11.20;99.90;;;;;;5095561;28;20445;-73
2022/02/15 10:06:35;;;;;;;1.37;1.27;;;11.40;99.90;;;;;;5094674;28;20461;-70
2022/02/15 10:09:03;;;;;;;1.03;1.03;;;12.00;99.90;;;;;;5095645;28;20437;-73
2022/02/15 10:11:40;;;;;;;1.50;1.40;;;12.40;99.90;;;;;;5095974;28;20369;-71
2022/02/15 10:14:07;;;;;;;0.87;0.87;;;13.10;99.90;;;;;;5095698;28;20425;-74
2022/02/15 10:16:48;;;;;;;0.70;0.70;;;14.10;99.90;;;;;;5096112;28;20414;-72
2022/02/15 10:19:30;;;;;;;1.33;1.23;;;14.50;98.10;;;;;;5094533;28;20459;-73
2022/02/15 10:21:57;;;;;;;1.10;1.00;;;14.30;96.70;;;;;;5094693;28;20400;-72
2022/02/15 10:24:25;;;;;;;0.80;0.80;;;13.90;96.30;;;;;;5094998;28;20480;-71
2022/02/15 10:27:01;;;;;;;1.30;1.27;;;13.40;96.80;;;;;;5095649;28;20442;-71
2022/02/15 10:29:29;;;;;;;1.53;1.10;;;12.80;97.40;;;;;;5096031;28;20398;-73
2022/02/15 10:32:00;;;;;;;1.30;1.17;;;12.20;98.10;;;;;;5095373;28;20489;-74
2022/02/15 10:34:27;;;;;;;3.10;1.17;;;11.90;98.80;;;;;;5095259;28;20919;-73
2022/02/15 10:37:03;;;;;;;0.90;0.90;;;11.50;99.50;;;;;;5095621;28;20389;-73
2022/02/15 10:39:57;;;;;;;1.63;1.10;;;11.40;99.50;;;;;;5094692;28;20944;-73
2022/02/15 10:42:25;;;;;;;1.40;1.30;;;11.00;99.80;;;;;;5094962;28;20767;-72
2022/02/15 10:44:53;;;;;;;1.20;1.10;;;10.80;99.90;;;;;;5095041;28;20395;-71
2022/02/15 10:47:20;;;;;;;1.40;0.90;;;10.60;99.90;;;;;;5093829;28;20447;-74
2022/02/15 10:49:46;;;;;;;1.77;1.27;;;10.40;99.90;;;;;;5095377;28;20395;-73
2022/02/15 10:52:13;;;;;;;0.87;0.87;;;10.20;99.90;;;;;;5094867;28;20381;-73
2022/02/15 10:54:39;;;;;;;1.17;0.90;;;10.20;99.90;;;;;;5094738;28;20397;-71
2022/02/15 10:57:06;;;;;;;0.50;0.50;;;10.20;99.90;;;;;;5095173;28;20178;-72
2022/02/15 10:59:33;;;;;;;1.52;1.00;;;10.20;99.90;;;;;;5095029;28;20172;-71
2022/02/15 11:02:02;;;;;;;1.63;1.52;;;10.10;99.90;;;;;;5095091;28;20172;-71
2022/02/15 11:04:31;;;;;;;0.60;0.60;;;10.10;99.90;;;;;;5094434;28;20220;-72
2022/02/15 11:06:57;;;;;;;1.45;0.82;;;10.20;99.90;;;;;;5094469;28;20188;-73
2022/02/15 11:09:30;;;;;;;1.00;1.00;;;10.20;99.90;;;;;;5094838;28;20169;-72
2022/02/15 11:12:24;;;;;;;0.80;0.80;;;10.20;99.90;;;;;;5094995;28;20414;-73
2022/02/15 11:14:59;;;;;;;0.80;0.80;;;10.20;99.90;;;;;;5094327;28;20588;-73
2022/02/15 11:17:26;;;;;;;0.73;0.70;;;10.10;99.70;;;;;;5094949;28;20175;-71
2022/02/15 11:20:05;;;;;;;0.73;0.73;;;10.10;99.20;;;;;;5094808;28;20260;-72
2022/02/15 11:22:42;;;;;;;1.25;1.15;;;10.10;98.90;;;;;;5093292;28;20251;-74
2022/02/15 11:25:08;;;;;;;1.60;1.10;;;10.10;99.20;;;;;;5094523;28;20275;-71
2022/02/15 11:27:35;;;;;;;1.98;1.17;;;10.00;99.40;;;;;;5094504;28;20193;-73
2022/02/15 11:30:02;;;;;;;1.33;1.23;;;9.90;99.90;;;;;;5094155;28;20164;-73
2022/02/15 11:32:31;;;;;;;0.90;0.90;;;9.90;99.90;;;;;;5094682;28;20247;-73
2022/02/15 11:34:57;;;;;;;2.95;1.20;;;9.80;99.90;;;;;;5094138;28;20196;-73
2022/02/15 11:37:25;;;;;;;0.50;0.50;;;9.80;99.90;;;;;;5094167;28;20168;-73
2022/02/15 11:40:01;;;;;;;0.95;0.57;;;9.80;99.90;;;;;;5094502;28;20169;-72
2022/02/15 11:42:27;;;;;;;0.82;0.82;;;9.70;99.90;;;;;;5094422;28;20172;-74
2022/02/15 11:44:54;;;;;;;1.10;0.97;;;9.70;99.90;;;;;;5093917;28;20210;-73
2022/02/15 11:47:26;;;;;;;1.20;1.10;;;9.70;99.90;;;;;;5094201;28;20523;-74
2022/02/15 11:50:00;;;;;;;2.15;2.05;;;9.60;99.90;;;;;;5094371;28;20223;-72
2022/02/15 11:52:28;;;;;;;1.60;1.00;;;9.60;99.90;;;;;;5093964;28;20199;-74
2022/02/15 11:55:31;;;;;;;1.70;1.38;;;9.70;99.90;;;;;;5093701;28;20219;-75
2022/02/15 11:57:57;;;;;;;0.93;0.70;;;9.60;99.90;;;;;;5093663;28;20224;-73
2022/02/15 12:00:31;;;;;;;1.37;0.93;;;9.60;99.90;;;;;;5092777;28;20255;-72
2022/02/15 12:02:57;;;;;;;0.75;0.75;;;9.60;99.90;;;;;;5093551;28;20251;-73
2022/02/15 12:05:28;;;;;;;0.87;0.87;;;9.60;99.90;;;;;;5092478;28;20686;-74
2022/02/15 12:07:56;;;;;;;1.30;1.20;;;9.60;99.90;;;;;;5093424;28;20199;-73
2022/02/15 12:10:24;;;;;;;1.67;1.05;;;9.70;99.90;;;;;;5093783;28;20211;-73
2022/02/15 12:12:52;;;;;;;1.13;1.13;;;9.70;99.90;;;;;;5092417;28;20504;-74
2022/02/15 12:15:18;;;;;;;1.50;1.40;;;9.70;99.90;;;;;;5093527;28;20184;-73
2022/02/15 12:17:46;;;;;;;1.48;0.80;;;9.80;99.70;;;;;;5093696;28;20173;-73
2022/02/15 12:20:14;;;;;;;1.30;0.98;;;9.80;99.90;;;;;;5093565;28;20522;-73
2022/02/15 12:22:42;;;;;;;1.13;1.03;;;9.90;99.70;;;;;;5091898;28;20634;-71
2022/02/15 12:25:09;;;;;;;1.10;1.10;;;10.00;99.40;;;;;;5093356;28;20496;-73
2022/02/15 12:27:42;;;;;;;1.08;1.08;;;10.10;99.00;;;;;;5093327;28;20248;-72
2022/02/15 12:30:12;;;;;;;0.68;0.68;;;10.20;99.00;;;;;;5093842;28;20164;-71
2022/02/15 12:32:39;;;;;;;0.70;0.70;;;10.30;99.00;;;;;;5093359;28;20159;-71
2022/02/15 12:35:07;;;;;;;1.13;1.05;;;10.40;98.60;;;;;;5093341;28;20201;-73
2022/02/15 12:37:33;;;;;;;0.80;0.80;;;10.50;98.60;;;;;;5093286;28;20173;-74
2022/02/15 12:40:01;;;;;;;1.77;1.03;;;10.70;98.50;;;;;;5093499;28;20178;-74
2022/02/15 12:42:30;;;;;;;1.30;1.20;;;10.80;98.60;;;;;;5092657;28;20178;-75
2022/02/15 12:45:06;;;;;;;1.23;1.20;;;10.90;98.60;;;;;;5092660;28;20424;-73
2022/02/15 12:47:38;;;;;;;1.60;1.07;;;10.90;98.80;;;;;;5093452;28;20443;-73
2022/02/15 12:50:05;;;;;;;1.07;1.07;;;10.90;98.40;;;;;;5093095;28;20432;-73
2022/02/15 12:52:33;;;;;;;0.75;0.75;;;10.80;98.40;;;;;;5093063;28;20420;-73
2022/02/15 12:55:09;;;;;;;1.20;1.10;;;10.80;98.50;;;;;;5092816;28;20286;-72
2022/02/15 12:57:38;;;;;;;0.98;0.98;;;10.60;98.20;;;;;;5093350;28;20172;-74
2022/02/15 13:00:05;;;;;;;1.25;1.00;;;10.50;98.50;;;;;;5092065;28;20208;-71
2022/02/15 13:02:33;;;;;;;0.95;0.95;;;10.40;98.90;;;;;;5093377;28;20181;-74